createdAt,value
2019-03-27T00:00:43.967Z,5.35
2019-03-27T00:03:12.687Z,5.28
2019-03-27T00:05:41.449Z,5.23
2019-03-27T00:08:10.075Z,5.21
2019-03-27T00:10:38.759Z,5.19
2019-03-27T00:13:07.599Z,5.18
2019-03-27T00:15:36.141Z,5.15
2019-03-27T00:18:05.212Z,5.19
2019-03-27T00:20:33.946Z,5.21
2019-03-27T00:23:02.705Z,5.23
2019-03-27T00:25:31.270Z,5.23
2019-03-27T00:28:00.034Z,5.18
2019-03-27T00:30:28.746Z,5.14
2019-03-27T00:32:57.354Z,5.08
2019-03-27T00:35:26.047Z,5.04
2019-03-27T00:37:54.668Z,5.01
2019-03-27T00:40:23.284Z,4.98
2019-03-27T00:42:52.042Z,4.95
2019-03-27T00:45:26.362Z,4.96
2019-03-27T00:47:51.149Z,4.92
2019-03-27T00:50:19.776Z,4.90
2019-03-27T00:52:48.401Z,4.90
2019-03-27T00:55:17.047Z,4.86
2019-03-27T00:57:45.717Z,4.83
2019-03-27T01:00:29.249Z,4.80
2019-03-27T01:02:57.986Z,4.75
2019-03-27T01:05:26.711Z,4.75
2019-03-27T01:07:55.426Z,4.76
2019-03-27T01:10:24.145Z,4.77
2019-03-27T01:12:52.833Z,4.76
2019-03-27T01:15:21.509Z,4.71
2019-03-27T01:17:50.252Z,4.71
2019-03-27T01:20:18.967Z,4.66
2019-03-27T01:22:49.215Z,4.65
2019-03-27T01:25:17.915Z,4.62
2019-03-27T01:27:46.611Z,4.60
2019-03-27T01:30:16.453Z,4.66
2019-03-27T01:32:45.121Z,4.76
2019-03-27T01:35:13.980Z,4.88
2019-03-27T01:37:42.657Z,4.95
2019-03-27T01:40:11.540Z,4.86
2019-03-27T01:42:40.229Z,4.77
2019-03-27T01:45:10.179Z,4.81
2019-03-27T01:47:38.805Z,4.84
2019-03-27T01:50:08.038Z,4.83
2019-03-27T01:52:36.676Z,4.92
2019-03-27T01:55:07.241Z,4.89
2019-03-27T01:57:36.072Z,4.88
2019-03-27T02:00:07.403Z,4.97
2019-03-27T02:02:36.153Z,4.97
2019-03-27T02:05:07.392Z,4.36
2019-03-27T02:07:36.225Z,4.99
2019-03-27T02:10:09.514Z,5.01
2019-03-27T02:12:38.134Z,5.02
2019-03-27T02:15:09.994Z,4.99
2019-03-27T02:17:38.726Z,4.99
2019-03-27T02:20:08.171Z,5.09
2019-03-27T02:22:36.858Z,5.00
2019-03-27T02:25:07.405Z,4.96
2019-03-27T02:27:36.098Z,4.95
2019-03-27T02:30:07.621Z,4.86
2019-03-27T02:32:36.250Z,4.72
2019-03-27T02:35:07.394Z,4.72
2019-03-27T02:37:35.952Z,4.42
2019-03-27T02:40:07.412Z,4.75
2019-03-27T02:42:36.369Z,4.08
2019-03-27T02:45:06.794Z,4.52
2019-03-27T02:47:35.487Z,4.37
2019-03-27T02:50:05.930Z,4.46
2019-03-27T02:52:34.683Z,4.48
2019-03-27T02:55:03.697Z,4.42
2019-03-27T02:57:32.514Z,4.35
2019-03-27T03:00:01.200Z,4.33
2019-03-27T03:02:29.894Z,4.30
2019-03-27T03:04:58.618Z,4.23
2019-03-27T03:07:27.432Z,4.20
2019-03-27T03:09:56.192Z,4.14
2019-03-27T03:12:24.958Z,4.16
2019-03-27T03:14:53.598Z,4.13
2019-03-27T03:17:22.306Z,4.15
2019-03-27T03:19:51.104Z,4.17
2019-03-27T03:22:19.724Z,4.13
2019-03-27T03:24:48.460Z,4.17
2019-03-27T03:27:17.164Z,4.17
2019-03-27T03:29:46.001Z,4.14
2019-03-27T03:32:14.733Z,4.02
2019-03-27T03:34:43.512Z,3.90
2019-03-27T03:37:12.365Z,3.90
2019-03-27T03:39:41.103Z,3.84
2019-03-27T03:42:09.729Z,3.75
2019-03-27T03:44:38.455Z,3.68
2019-03-27T03:47:07.198Z,3.69
2019-03-27T03:49:35.943Z,3.56
2019-03-27T03:52:05.186Z,3.50
2019-03-27T03:54:33.944Z,3.31
2019-03-27T03:57:03.856Z,3.49
2019-03-27T03:59:34.302Z,3.48
2019-03-27T04:02:04.693Z,3.54
2019-03-27T04:04:35.656Z,3.54
2019-03-27T04:07:05.429Z,3.47
2019-03-27T04:09:34.177Z,3.24
2019-03-27T04:12:02.848Z,3.33
2019-03-27T04:14:31.628Z,3.29
2019-03-27T04:17:16.074Z,3.26
2019-03-27T04:19:30.780Z,3.29
2019-03-27T04:21:59.508Z,3.41
2019-03-27T04:24:28.192Z,3.45
2019-03-27T04:26:56.934Z,3.44
2019-03-27T04:29:25.693Z,3.42
2019-03-27T04:31:54.317Z,3.33
2019-03-27T04:34:22.868Z,3.38
2019-03-27T04:36:51.618Z,3.37
2019-03-27T04:39:20.308Z,3.36
2019-03-27T04:41:48.911Z,3.30
2019-03-27T04:44:17.473Z,3.23
2019-03-27T04:46:46.122Z,3.17
2019-03-27T04:49:14.856Z,3.23
2019-03-27T04:51:43.511Z,3.28
2019-03-27T04:54:12.233Z,3.29
2019-03-27T04:56:40.879Z,3.27
2019-03-27T04:59:09.645Z,3.43
2019-03-27T05:01:38.375Z,3.57
2019-03-27T05:04:08.134Z,3.73
2019-03-27T05:06:36.824Z,3.90
2019-03-27T05:09:08.573Z,3.99
2019-03-27T05:11:37.478Z,4.05
2019-03-27T05:14:06.309Z,4.17
2019-03-27T05:16:34.930Z,4.20
2019-03-27T05:19:03.655Z,4.23
2019-03-27T05:21:32.371Z,3.74
2019-03-27T05:24:01.167Z,4.24
2019-03-27T05:26:29.903Z,4.25
2019-03-27T05:28:58.610Z,4.26
2019-03-27T05:31:27.281Z,4.27
2019-03-27T05:33:55.993Z,4.30
2019-03-27T05:36:24.792Z,4.31
2019-03-27T05:38:53.539Z,4.34
2019-03-27T05:41:22.423Z,4.37
2019-03-27T05:43:51.139Z,4.38
2019-03-27T05:46:19.868Z,4.44
2019-03-27T05:48:48.677Z,4.46
2019-03-27T05:51:17.356Z,4.50
2019-03-27T05:53:45.988Z,4.55
2019-03-27T05:56:14.669Z,4.58
2019-03-27T05:58:43.375Z,4.57
2019-03-27T06:01:12.129Z,4.56
2019-03-27T06:03:40.882Z,4.56
2019-03-27T06:06:09.526Z,4.57
2019-03-27T06:08:38.184Z,4.55
2019-03-27T06:11:06.908Z,4.53
2019-03-27T06:13:35.636Z,4.56
2019-03-27T06:16:05.008Z,4.65
2019-03-27T06:18:33.652Z,4.73
2019-03-27T06:21:02.386Z,4.84
2019-03-27T06:23:31.075Z,4.83
2019-03-27T06:25:59.715Z,4.83
2019-03-27T06:28:28.580Z,4.92
2019-03-27T06:30:58.027Z,5.15
2019-03-27T06:33:26.738Z,5.45
2019-03-27T06:35:56.961Z,5.43
2019-03-27T06:38:25.780Z,5.38
2019-03-27T06:40:54.661Z,5.33
2019-03-27T06:43:23.456Z,5.47
2019-03-27T06:45:52.205Z,5.62
2019-03-27T06:48:26.272Z,5.94
2019-03-27T06:50:51.507Z,6.08
2019-03-27T06:53:20.294Z,6.27
2019-03-27T06:55:48.962Z,6.39
2019-03-27T06:58:17.577Z,6.58
2019-03-27T07:00:46.316Z,6.80
2019-03-27T07:03:15.063Z,7.21
2019-03-27T07:05:43.749Z,7.63
2019-03-27T07:08:12.512Z,8.02
2019-03-27T07:10:41.145Z,8.17
2019-03-27T07:13:09.817Z,8.47
2019-03-27T07:15:38.550Z,8.85
2019-03-27T07:18:07.395Z,9.17
2019-03-27T07:20:36.088Z,9.11
2019-03-27T07:23:04.798Z,9.02
2019-03-27T07:25:33.639Z,9.25
2019-03-27T07:28:02.243Z,9.50
2019-03-27T07:30:30.865Z,9.70
2019-03-27T07:32:59.527Z,10.17
2019-03-27T07:35:28.173Z,9.80
2019-03-27T07:37:56.899Z,9.01
2019-03-27T07:40:25.560Z,9.59
2019-03-27T07:42:54.196Z,9.52
2019-03-27T07:45:22.906Z,9.47
2019-03-27T07:47:51.584Z,9.80
2019-03-27T07:50:20.293Z,9.74
2019-03-27T07:52:48.966Z,9.95
2019-03-27T07:55:19.503Z,10.08
2019-03-27T07:57:48.046Z,10.37
2019-03-27T08:00:20.037Z,10.20
2019-03-27T08:02:48.835Z,10.51
2019-03-27T08:05:17.598Z,10.74
2019-03-27T08:07:47.225Z,10.79
2019-03-27T08:10:15.890Z,10.83
2019-03-27T08:12:44.659Z,10.79
2019-03-27T08:15:14.756Z,10.73
2019-03-27T08:17:43.487Z,10.98
2019-03-27T08:20:14.030Z,10.88
2019-03-27T08:22:42.730Z,10.31
2019-03-27T08:25:11.830Z,10.24
2019-03-27T08:27:41.972Z,10.47
2019-03-27T08:30:17.816Z,11.12
2019-03-27T08:32:46.589Z,10.91
2019-03-27T08:35:15.729Z,10.97
2019-03-27T08:37:44.411Z,11.18
2019-03-27T08:40:13.742Z,11.00
2019-03-27T08:42:42.447Z,11.13
2019-03-27T08:45:11.868Z,11.36
2019-03-27T08:47:40.611Z,11.21
2019-03-27T08:50:10.839Z,11.42
2019-03-27T08:52:39.522Z,12.09
2019-03-27T08:55:09.869Z,12.72
2019-03-27T08:57:38.663Z,13.41
2019-03-27T09:00:09.942Z,12.95
2019-03-27T09:02:38.784Z,13.53
2019-03-27T09:05:08.870Z,13.75
2019-03-27T09:07:37.572Z,14.04
2019-03-27T09:10:08.932Z,14.57
2019-03-27T09:12:37.875Z,14.25
2019-03-27T09:15:09.008Z,14.49
2019-03-27T09:17:37.826Z,15.01
2019-03-27T09:20:09.138Z,14.31
2019-03-27T09:22:37.895Z,14.12
2019-03-27T09:25:07.797Z,14.56
2019-03-27T09:27:36.436Z,14.83
2019-03-27T09:30:08.042Z,15.36
2019-03-27T09:32:36.906Z,15.54
2019-03-27T09:35:06.901Z,15.34
2019-03-27T09:37:35.630Z,14.73
2019-03-27T09:40:07.090Z,14.10
2019-03-27T09:42:35.830Z,14.10
2019-03-27T09:45:08.024Z,14.04
2019-03-27T09:47:36.973Z,14.13
2019-03-27T09:50:07.317Z,14.28
2019-03-27T09:52:36.014Z,14.43
2019-03-27T09:55:06.165Z,14.67
2019-03-27T09:57:34.898Z,14.79
2019-03-27T10:00:05.423Z,15.30
2019-03-27T10:02:34.138Z,15.37
2019-03-27T10:05:02.920Z,16.16
2019-03-27T10:07:31.704Z,16.65
2019-03-27T10:10:00.517Z,16.66
2019-03-27T10:12:29.311Z,16.48
2019-03-27T10:14:57.813Z,16.25
2019-03-27T10:17:26.505Z,16.36
2019-03-27T10:20:03.352Z,16.35
2019-03-27T10:22:25.521Z,16.85
2019-03-27T10:24:54.130Z,16.88
2019-03-27T10:27:22.864Z,15.68
2019-03-27T10:29:51.569Z,16.08
2019-03-27T10:32:20.313Z,16.17
2019-03-27T10:34:49.082Z,16.01
2019-03-27T10:37:17.790Z,16.13
2019-03-27T10:39:46.493Z,16.69
2019-03-27T10:42:15.124Z,16.96
2019-03-27T10:44:43.813Z,17.08
2019-03-27T10:47:12.515Z,17.36
2019-03-27T10:49:41.217Z,17.08
2019-03-27T10:52:09.911Z,16.90
2019-03-27T10:54:38.534Z,17.05
2019-03-27T10:57:07.450Z,16.58
2019-03-27T10:59:36.146Z,16.35
2019-03-27T11:02:05.302Z,15.88
2019-03-27T11:04:33.974Z,15.56
2019-03-27T11:07:02.697Z,15.47
2019-03-27T11:09:31.410Z,16.17
2019-03-27T11:12:00.049Z,16.81
2019-03-27T11:14:37.686Z,17.26
2019-03-27T11:16:59.244Z,17.76
2019-03-27T11:19:27.876Z,17.73
2019-03-27T11:21:56.525Z,17.32
2019-03-27T11:24:25.285Z,16.91
2019-03-27T11:26:54.000Z,16.74
2019-03-27T11:29:22.660Z,16.37
2019-03-27T11:31:51.434Z,15.99
2019-03-27T11:34:20.150Z,16.03
2019-03-27T11:36:48.930Z,15.54
2019-03-27T11:39:17.765Z,15.29
2019-03-27T11:41:46.462Z,15.19
2019-03-27T11:44:15.193Z,14.96
2019-03-27T11:46:43.925Z,15.28
2019-03-27T11:49:12.550Z,15.37
2019-03-27T11:51:41.372Z,15.71
2019-03-27T11:54:10.141Z,16.08
2019-03-27T11:56:38.769Z,16.10
2019-03-27T11:59:07.528Z,16.69
2019-03-27T12:01:41.976Z,16.70
2019-03-27T12:04:06.837Z,16.73
2019-03-27T12:06:35.471Z,16.73
2019-03-27T12:09:07.652Z,17.04
2019-03-27T12:11:36.624Z,16.84
2019-03-27T12:14:05.530Z,17.64
2019-03-27T12:16:34.231Z,16.38
2019-03-27T12:19:03.109Z,16.42
2019-03-27T12:21:31.757Z,16.86
2019-03-27T12:24:00.387Z,17.33
2019-03-27T12:26:29.071Z,16.68
2019-03-27T12:28:57.808Z,16.38
2019-03-27T12:31:26.556Z,16.68
2019-03-27T12:33:55.302Z,16.86
2019-03-27T12:36:23.973Z,17.24
2019-03-27T12:38:52.695Z,16.04
2019-03-27T12:41:21.335Z,16.13
2019-03-27T12:43:50.070Z,16.31
2019-03-27T12:46:18.812Z,16.46
2019-03-27T12:48:47.641Z,16.56
2019-03-27T12:51:16.272Z,16.13
2019-03-27T12:53:44.963Z,15.41
2019-03-27T12:56:13.739Z,15.34
2019-03-27T12:58:42.569Z,15.27
2019-03-27T13:01:11.311Z,15.22
2019-03-27T13:03:44.294Z,15.16
2019-03-27T13:06:18.502Z,15.35
2019-03-27T13:08:49.607Z,15.18
2019-03-27T13:11:18.574Z,15.10
2019-03-27T13:13:47.308Z,15.14
2019-03-27T13:16:15.876Z,15.16
2019-03-27T13:18:44.619Z,15.26
2019-03-27T13:21:25.582Z,15.20
2019-03-27T13:23:46.077Z,15.08
2019-03-27T13:26:14.824Z,15.10
2019-03-27T13:28:49.036Z,14.91
2019-03-27T13:31:14.031Z,14.96
2019-03-27T13:33:42.756Z,14.90
2019-03-27T13:36:11.487Z,14.87
2019-03-27T13:38:40.206Z,14.92
2019-03-27T13:41:08.988Z,15.06
2019-03-27T13:43:37.656Z,15.17
2019-03-27T13:46:06.348Z,15.20
2019-03-27T13:48:35.075Z,15.20
2019-03-27T13:51:03.730Z,15.09
2019-03-27T13:53:32.392Z,15.11
2019-03-27T13:56:01.226Z,14.92
2019-03-27T13:58:29.923Z,14.72
2019-03-27T14:00:58.885Z,14.33
2019-03-27T14:03:27.629Z,14.32
2019-03-27T14:05:56.277Z,14.37
2019-03-27T14:08:25.035Z,14.26
2019-03-27T14:10:53.647Z,14.17
2019-03-27T14:13:22.321Z,14.10
2019-03-27T14:15:51.144Z,14.13
2019-03-27T14:18:19.855Z,14.11
2019-03-27T14:20:48.442Z,14.14
2019-03-27T14:23:17.230Z,14.08
2019-03-27T14:25:45.957Z,14.14
2019-03-27T14:28:14.800Z,14.07
2019-03-27T14:30:52.257Z,14.07
2019-03-27T14:33:21.324Z,14.31
2019-03-27T14:35:50.045Z,14.29
2019-03-27T14:38:18.715Z,14.16
2019-03-27T14:40:47.456Z,14.11
2019-03-27T14:43:16.198Z,14.02
2019-03-27T14:45:44.868Z,14.05
2019-03-27T14:48:13.541Z,14.08
2019-03-27T14:50:42.178Z,14.09
2019-03-27T14:53:10.803Z,14.12
2019-03-27T14:55:39.472Z,14.01
2019-03-27T14:58:08.099Z,14.10
2019-03-27T15:00:36.972Z,14.25
2019-03-27T15:03:05.737Z,14.46
2019-03-27T15:05:34.435Z,14.39
2019-03-27T15:08:04.343Z,14.27
2019-03-27T15:10:33.525Z,13.98
2019-03-27T15:13:02.190Z,14.31
2019-03-27T15:15:30.911Z,14.26
2019-03-27T15:17:59.654Z,14.15
2019-03-27T15:20:28.395Z,14.20
2019-03-27T15:22:57.020Z,14.18
2019-03-27T15:25:25.693Z,14.25
2019-03-27T15:27:54.443Z,14.29
2019-03-27T15:30:23.186Z,14.44
2019-03-27T15:32:51.892Z,14.31
2019-03-27T15:35:20.759Z,14.04
2019-03-27T15:37:49.434Z,13.95
2019-03-27T15:40:20.950Z,13.93
2019-03-27T15:42:49.692Z,14.02
2019-03-27T15:45:18.322Z,13.78
2019-03-27T15:47:46.988Z,13.64
2019-03-27T15:50:15.650Z,13.70
2019-03-27T15:52:44.420Z,13.66
2019-03-27T15:55:13.245Z,13.63
2019-03-27T15:57:41.998Z,13.51
2019-03-27T16:00:11.615Z,13.44
2019-03-27T16:02:40.373Z,13.43
2019-03-27T16:05:09.259Z,13.48
2019-03-27T16:07:38.065Z,13.24
2019-03-27T16:10:07.477Z,13.47
2019-03-27T16:12:36.631Z,13.45
2019-03-27T16:15:08.791Z,13.31
2019-03-27T16:17:37.625Z,13.23
2019-03-27T16:20:07.964Z,13.22
2019-03-27T16:22:49.967Z,13.22
2019-03-27T16:25:09.558Z,13.16
2019-03-27T16:27:38.464Z,13.10
2019-03-27T16:30:08.791Z,12.99
2019-03-27T16:32:38.804Z,13.00
2019-03-27T16:35:09.086Z,13.02
2019-03-27T16:37:37.949Z,12.99
2019-03-27T16:40:07.726Z,12.98
2019-03-27T16:42:36.527Z,12.92
2019-03-27T16:45:07.931Z,12.88
2019-03-27T16:47:37.948Z,12.87
2019-03-27T16:50:09.100Z,12.80
2019-03-27T16:52:37.867Z,12.84
2019-03-27T16:55:09.243Z,12.90
2019-03-27T16:57:38.173Z,12.68
2019-03-27T17:00:09.009Z,12.68
2019-03-27T17:02:37.716Z,12.71
2019-03-27T17:05:09.174Z,12.58
2019-03-27T17:07:38.139Z,12.44
2019-03-27T17:10:09.096Z,12.38
2019-03-27T17:12:37.981Z,12.30
2019-03-27T17:15:09.896Z,12.24
2019-03-27T17:17:39.113Z,12.11
2019-03-27T17:20:10.747Z,12.02
2019-03-27T17:22:40.762Z,11.87
2019-03-27T17:25:15.538Z,11.84
2019-03-27T17:27:44.924Z,11.75
2019-03-27T17:30:14.255Z,11.71
2019-03-27T17:32:42.950Z,11.64
2019-03-27T17:35:13.266Z,11.64
2019-03-27T17:37:42.084Z,11.60
2019-03-27T17:40:12.317Z,11.57
2019-03-27T17:42:40.974Z,11.56
2019-03-27T17:45:09.945Z,11.55
2019-03-27T17:47:38.659Z,11.31
2019-03-27T17:50:08.252Z,11.49
2019-03-27T17:52:38.413Z,11.46
2019-03-27T17:55:10.918Z,11.44
2019-03-27T17:57:39.559Z,11.52
2019-03-27T18:00:10.537Z,11.50
2019-03-27T18:02:39.375Z,11.37
2019-03-27T18:05:08.349Z,11.35
2019-03-27T18:07:38.768Z,11.32
2019-03-27T18:10:20.940Z,11.33
2019-03-27T18:12:55.443Z,11.32
2019-03-27T18:15:39.466Z,11.39
2019-03-27T18:18:09.477Z,11.32
2019-03-27T18:20:51.480Z,11.25
2019-03-27T18:23:44.875Z,11.26
2019-03-27T18:26:15.090Z,11.25
2019-03-27T18:28:45.235Z,11.19
2019-03-27T18:31:29.503Z,11.17
2019-03-27T18:34:00.381Z,11.15
2019-03-27T18:36:30.308Z,11.13
2019-03-27T18:38:59.268Z,11.16
2019-03-27T18:41:28.334Z,11.08
2019-03-27T18:43:57.393Z,11.09
2019-03-27T18:46:35.830Z,11.08
2019-03-27T18:49:06.611Z,10.96
2019-03-27T18:51:35.332Z,10.73
2019-03-27T18:54:05.228Z,10.86
2019-03-27T18:56:33.890Z,10.80
2019-03-27T18:59:02.601Z,10.68
2019-03-27T19:01:31.276Z,10.70
2019-03-27T19:03:59.955Z,10.67
2019-03-27T19:06:28.775Z,10.60
2019-03-27T19:08:59.831Z,10.51
2019-03-27T19:11:28.463Z,10.40
2019-03-27T19:13:57.128Z,10.33
2019-03-27T19:16:26.372Z,10.24
2019-03-27T19:18:55.176Z,10.16
2019-03-27T19:21:23.942Z,10.17
2019-03-27T19:23:52.632Z,10.17
2019-03-27T19:26:21.786Z,10.11
2019-03-27T19:28:53.613Z,10.09
2019-03-27T19:31:21.952Z,10.03
2019-03-27T19:33:50.816Z,10.00
2019-03-27T19:36:19.445Z,9.99
2019-03-27T19:38:48.068Z,9.90
2019-03-27T19:41:18.412Z,9.87
2019-03-27T19:43:47.091Z,9.83
2019-03-27T19:46:16.042Z,9.77
2019-03-27T19:48:48.734Z,9.76
2019-03-27T19:51:30.865Z,9.79
2019-03-27T19:54:26.409Z,9.78
2019-03-27T19:56:47.474Z,9.74
2019-03-27T19:59:16.405Z,9.79
2019-03-27T20:01:45.128Z,9.80
2019-03-27T20:04:14.755Z,9.83
2019-03-27T20:06:43.462Z,9.86
2019-03-27T20:09:13.134Z,9.86
2019-03-27T20:11:41.991Z,9.88
2019-03-27T20:14:11.144Z,9.96
2019-03-27T20:16:39.912Z,9.96
2019-03-27T20:19:08.623Z,10.01
2019-03-27T20:21:38.395Z,10.00
2019-03-27T20:24:13.346Z,9.99
2019-03-27T20:26:42.185Z,9.96
2019-03-27T20:29:12.424Z,9.97
2019-03-27T20:31:41.431Z,9.98
2019-03-27T20:34:10.137Z,9.88
2019-03-27T20:36:39.415Z,9.95
2019-03-27T20:39:09.788Z,9.94
2019-03-27T20:41:38.551Z,9.99
2019-03-27T20:44:07.307Z,10.01
2019-03-27T20:46:36.013Z,10.03
2019-03-27T20:49:05.361Z,10.08
2019-03-27T20:51:34.042Z,9.81
2019-03-27T20:54:02.661Z,10.01
2019-03-27T20:56:31.371Z,9.98
2019-03-27T20:59:01.452Z,9.99
2019-03-27T21:01:30.685Z,9.99
2019-03-27T21:04:00.368Z,9.93
2019-03-27T21:06:29.108Z,9.92
2019-03-27T21:09:02.409Z,9.89
2019-03-27T21:11:34.505Z,9.92
2019-03-27T21:14:03.462Z,9.90
2019-03-27T21:16:32.488Z,9.87
2019-03-27T21:19:01.278Z,9.81
2019-03-27T21:21:29.943Z,9.85
2019-03-27T21:23:58.798Z,9.83
2019-03-27T21:26:27.693Z,9.84
2019-03-27T21:28:56.487Z,9.80
2019-03-27T21:31:25.156Z,9.81
2019-03-27T21:33:57.604Z,9.83
2019-03-27T21:36:25.243Z,9.87
2019-03-27T21:38:53.900Z,9.84
2019-03-27T21:41:22.684Z,9.91
2019-03-27T21:43:51.493Z,9.76
2019-03-27T21:46:20.314Z,9.68
2019-03-27T21:48:49.225Z,9.64
2019-03-27T21:51:18.061Z,9.62
2019-03-27T21:53:50.556Z,9.24
2019-03-27T21:56:17.180Z,9.60
2019-03-27T21:58:45.876Z,9.57
2019-03-27T22:01:14.582Z,9.56
2019-03-27T22:03:43.355Z,9.53
2019-03-27T22:06:12.113Z,9.49
2019-03-27T22:08:40.773Z,9.49
2019-03-27T22:11:09.534Z,9.47
2019-03-27T22:13:38.177Z,9.51
2019-03-27T22:16:06.896Z,9.45
2019-03-27T22:18:35.714Z,9.43
2019-03-27T22:21:04.981Z,9.40
2019-03-27T22:23:33.682Z,9.21
2019-03-27T22:26:02.303Z,9.33
2019-03-27T22:28:30.982Z,9.37
2019-03-27T22:30:59.693Z,9.29
2019-03-27T22:33:28.454Z,9.26
2019-03-27T22:35:57.163Z,9.23
2019-03-27T22:38:25.933Z,9.20
2019-03-27T22:40:54.772Z,9.19
2019-03-27T22:43:23.388Z,9.17
2019-03-27T22:45:52.102Z,9.14
2019-03-27T22:48:20.881Z,9.11
2019-03-27T22:50:49.642Z,9.12
2019-03-27T22:53:18.397Z,9.07
2019-03-27T22:55:50.061Z,9.12
2019-03-27T22:58:17.547Z,9.07
2019-03-27T23:00:50.838Z,9.05
2019-03-27T23:03:19.521Z,9.07
2019-03-27T23:05:48.215Z,9.06
2019-03-27T23:08:16.837Z,9.05
2019-03-27T23:10:45.563Z,9.03
2019-03-27T23:13:14.250Z,9.02
2019-03-27T23:15:43.023Z,9.09
2019-03-27T23:18:11.714Z,9.06
2019-03-27T23:20:40.493Z,9.05
2019-03-27T23:23:09.181Z,9.06
2019-03-27T23:25:37.870Z,9.03
2019-03-27T23:28:06.635Z,9.01
2019-03-27T23:30:35.273Z,9.01
2019-03-27T23:33:05.150Z,8.96
2019-03-27T23:35:33.857Z,8.96
2019-03-27T23:38:02.485Z,8.93
2019-03-27T23:40:31.220Z,8.90
2019-03-27T23:42:59.886Z,8.85
2019-03-27T23:45:29.147Z,8.81
2019-03-27T23:47:58.555Z,8.83
2019-03-27T23:50:27.242Z,8.76
2019-03-27T23:52:56.066Z,8.79
2019-03-27T23:55:24.862Z,8.79
2019-03-27T23:57:53.560Z,8.79
